Alpha, Minnesota
Current Conditions -  °F | °C
As of 7:34 AM on Thursday 30 Oct 2014 (Local Time) from KMJQ Reporting Station
Overcast Overcast  
Wind Chill:   Ceiling: 9500
Heat Index:   Visibility: 10mi
Dew Point:   Wind: 7mph
Humidity: 70%   Direction: 120°ESE
Pressure: 30"   Gusts: NA
Location:  43.64°N, 94.87°W
Report Text: KMJQ 301234Z AUTO 12006KT 10SM SCT080 BKN095 OVC120 05/00 A3000 RMK AO2
Loading
Personal Weather Stations






























Interactive Weather Map
Tropical Storm Tracking
New forecast layout! Learn more

10-Day Weather Forecast

Advertisements
Track Severe Weather on mobile